Time;durP1;ratioP1;P1;durP2;ratioP2;P2;SDS_P1;SDS_P2;PMS_P1;PMS_P2;Temp;Humidity;BMP_temperature;BMP_pressure;BME280_temperature;BME280_humidity;BME280_pressure;Samples;Min_cycle;Max_cycle;Signal;HPM_P1;HPM_P2
2022/06/21 00:00:09;;;;;;;;;;;;;;;15.92;95.60;97524.02;1778757;80;20176;-86
2022/06/21 00:02:36;;;;;;;;;;;;;;;15.82;95.92;97529.27;1779355;79;20220;-83
2022/06/21 00:05:02;;;;;;;;;;;;;;;15.70;93.46;97529.92;1800421;79;21167;-86
2022/06/21 00:07:28;;;;;;;;;;;;;;;15.62;92.52;97525.27;1788276;79;20180;-87
2022/06/21 00:09:54;;;;;;;;;;;;;;;15.63;92.90;97528.80;1758215;80;20198;-86
2022/06/21 00:12:20;;;;;;;;;;;;;;;15.57;92.94;97541.81;1781891;80;20169;-83
2022/06/21 00:14:46;;;;;;;;;;;;;;;15.52;92.88;97542.77;1760641;80;20172;-86
2022/06/21 00:17:13;;;;;;;;;;;;;;;15.40;92.87;97550.83;1786437;78;21139;-83
2022/06/21 00:19:38;;;;;;;;;;;;;;;15.31;91.90;97548.66;1813947;79;20181;-86
2022/06/21 00:22:05;;;;;;;;;;;;;;;15.25;92.67;97558.12;1809724;79;20192;-86
2022/06/21 00:24:31;;;;;;;;;;;;;;;15.16;93.51;97554.59;1811314;79;20177;-83
2022/06/21 00:26:57;;;;;;;;;;;;;;;15.11;94.13;97551.45;1803669;79;20173;-83
2022/06/21 00:29:22;;;;;;;;;;;;;;;15.05;94.75;97554.67;1799984;79;21074;-86
2022/06/21 00:31:48;;;;;;;;;;;;;;;14.85;96.31;97554.15;1803766;79;20231;-84
2022/06/21 00:34:19;;;;;;;;;;;;;;;14.87;95.93;97567.49;1808997;79;20191;-83
2022/06/21 00:36:45;;;;;;;;;;;;;;;14.81;95.76;97556.48;1809202;79;20175;-83
2022/06/21 00:39:15;;;;;;;;;;;;;;;14.80;95.93;97553.52;1785846;79;20679;-86
2022/06/21 00:41:50;;;;;;;;;;;;;;;14.80;95.32;97550.79;1785265;79;21143;-86
2022/06/21 00:44:37;;;;;;;;;;;;;;;14.76;95.37;97550.61;1811146;79;20276;-83
2022/06/21 00:47:21;;;;;;;;;;;;;;;14.75;95.42;97550.93;1758856;80;20219;-83
2022/06/21 00:49:53;;;;;;;;;;;;;;;14.80;95.46;97542.61;1779716;80;20164;-86
2022/06/21 00:52:21;;;;;;;;;;;;;;;14.76;95.77;97545.16;1773915;79;20154;-83
2022/06/21 00:54:59;;;;;;;;;;;;;;;14.76;95.61;97551.16;1807467;79;21101;-83
2022/06/21 00:57:28;;;;;;;;;;;;;;;14.70;95.32;97546.97;1795625;79;20490;-86
2022/06/21 00:59:58;;;;;;;;;;;;;;;14.55;96.35;97549.61;1788180;80;20431;-86
2022/06/21 01:02:31;;;;;;;;;;;;;;;14.55;96.47;97550.41;1795869;79;20190;-83
2022/06/21 01:04:57;;;;;;;;;;;;;;;14.52;96.86;97549.66;1799953;79;20445;-83
2022/06/21 01:07:23;;;;;;;;;;;;;;;14.47;97.31;97549.82;1810680;79;21143;-82
2022/06/21 01:09:52;;;;;;;;;;;;;;;14.44;97.80;97544.98;1817627;79;20184;-86
2022/06/21 01:12:24;;;;;;;;;;;;;;;14.33;98.33;97548.53;1817533;78;20189;-83
2022/06/21 01:15:02;;;;;;;;;;;;;;;14.23;98.41;97551.54;1807121;77;20193;-83
2022/06/21 01:17:28;;;;;;;;;;;;;;;14.03;99.88;97557.55;1809737;79;20181;-83
2022/06/21 01:20:00;;;;;;;;;;;;;;;13.97;100.00;97556.88;1808529;79;21111;-86
2022/06/21 01:22:52;;;;;;;;;;;;;;;13.86;100.00;97560.18;1815433;79;20450;-82
2022/06/21 01:25:30;;;;;;;;;;;;;;;13.77;100.00;97554.13;1817679;78;20197;-82
2022/06/21 01:27:56;;;;;;;;;;;;;;;13.81;100.00;97556.46;1798138;79;20457;-86
2022/06/21 01:30:23;;;;;;;;;;;;;;;13.84;100.00;97549.58;1800240;79;20192;-83
2022/06/21 01:32:49;;;;;;;;;;;;;;;13.83;100.00;97551.50;1817113;78;21248;-86
2022/06/21 01:35:30;;;;;;;;;;;;;;;13.90;99.92;97557.87;1775381;79;21398;-86
2022/06/21 01:37:56;;;;;;;;;;;;;;;13.97;99.88;97558.80;1766781;79;20461;-86
2022/06/21 01:40:25;;;;;;;;;;;;;;;14.01;98.79;97560.56;1795692;80;20243;-86
2022/06/21 01:42:54;;;;;;;;;;;;;;;14.06;97.49;97563.72;1761709;79;20168;-86
2022/06/21 01:45:21;;;;;;;;;;;;;;;14.07;96.90;97568.85;1781952;80;21759;-85
2022/06/21 01:47:50;;;;;;;;;;;;;;;14.01;95.58;97565.20;1780363;79;20157;-83
2022/06/21 01:50:16;;;;;;;;;;;;;;;14.04;95.66;97572.77;1812049;79;20189;-82
2022/06/21 01:52:44;;;;;;;;;;;;;;;14.06;95.37;97570.53;1801050;79;20155;-83
2022/06/21 01:55:19;;;;;;;;;;;;;;;14.07;95.03;97572.94;1799859;79;20162;-83
2022/06/21 01:57:44;;;;;;;;;;;;;;;14.09;94.87;97568.53;1802450;79;21288;-84
2022/06/21 02:00:11;;;;;;;;;;;;;;;14.12;94.61;97574.73;1817753;79;20243;-86
2022/06/21 02:02:45;;;;;;;;;;;;;;;14.13;94.39;97580.43;1817131;79;20169;-86
2022/06/21 02:05:20;;;;;;;;;;;;;;;14.16;93.95;97579.80;1809715;79;20186;-83
2022/06/21 02:07:49;;;;;;;;;;;;;;;14.21;93.67;97584.31;1808284;79;20131;-83
2022/06/21 02:10:23;;;;;;;;;;;;;;;14.16;93.16;97584.44;1784786;80;21123;-86
2022/06/21 02:12:58;;;;;;;;;;;;;;;14.17;93.15;97582.77;1815035;79;20165;-85
2022/06/21 02:15:43;;;;;;;;;;;;;;;14.17;93.03;97586.05;1797275;78;20214;-86
2022/06/21 02:18:10;;;;;;;;;;;;;;;14.23;92.97;97593.78;1802628;78;20174;-83
2022/06/21 02:20:54;;;;;;;;;;;;;;;14.26;91.95;97590.97;1785025;79;20180;-86
2022/06/21 02:23:22;;;;;;;;;;;;;;;14.26;91.98;97596.42;1804809;79;21930;-83
2022/06/21 02:25:47;;;;;;;;;;;;;;;14.25;91.08;97597.55;1817363;79;20153;-83
2022/06/21 02:28:14;;;;;;;;;;;;;;;14.23;90.96;97600.59;1817499;79;20234;-83
2022/06/21 02:30:40;;;;;;;;;;;;;;;14.19;90.12;97594.17;1817652;79;20137;-83
2022/06/21 02:33:06;;;;;;;;;;;;;;;14.13;89.67;97593.25;1810699;79;20122;-86
2022/06/21 02:35:38;;;;;;;;;;;;;;;14.12;90.34;97596.53;1799828;79;20935;-86
2022/06/21 02:38:06;;;;;;;;;;;;;;;14.14;90.30;97592.13;1801217;79;20181;-85
2022/06/21 02:40:34;;;;;;;;;;;;;;;14.10;89.88;97605.03;1817767;79;20174;-86
2022/06/21 02:43:03;;;;;;;;;;;;;;;14.08;89.71;97606.44;1805395;79;20141;-83
2022/06/21 02:45:35;;;;;;;;;;;;;;;14.10;89.85;97598.77;1795206;79;20170;-86
2022/06/21 02:48:05;;;;;;;;;;;;;;;14.11;89.83;97596.30;1814012;79;20919;-86
2022/06/21 02:50:36;;;;;;;;;;;;;;;14.10;89.45;97600.94;1800010;79;20189;-83
2022/06/21 02:53:05;;;;;;;;;;;;;;;14.10;89.16;97604.23;1818094;78;20166;-86
2022/06/21 02:55:44;;;;;;;;;;;;;;;14.12;89.15;97601.98;1800186;79;20641;-86
2022/06/21 02:58:25;;;;;;;;;;;;;;;14.10;87.91;97615.13;1792180;79;20164;-84
2022/06/21 03:00:52;;;;;;;;;;;;;;;14.03;87.69;97610.11;1810127;79;21054;-86
2022/06/21 03:03:19;;;;;;;;;;;;;;;13.93;87.38;97618.55;1817748;79;20193;-86
2022/06/21 03:05:50;;;;;;;;;;;;;;;13.76;86.83;97620.59;1818026;79;20165;-86
2022/06/21 03:08:16;;;;;;;;;;;;;;;13.71;87.15;97617.98;1802026;79;20166;-86
2022/06/21 03:10:43;;;;;;;;;;;;;;;13.61;86.78;97616.88;1805625;79;20142;-83
2022/06/21 03:13:18;;;;;;;;;;;;;;;13.60;87.12;97626.72;1813204;79;20982;-82
2022/06/21 03:15:47;;;;;;;;;;;;;;;13.59;87.46;97631.36;1817789;79;20476;-84
2022/06/21 03:18:18;;;;;;;;;;;;;;;13.61;87.48;97634.56;1817316;78;20173;-86
2022/06/21 03:20:43;;;;;;;;;;;;;;;13.64;86.97;97642.67;1779949;80;20428;-86
2022/06/21 03:23:09;;;;;;;;;;;;;;;13.66;87.13;97639.88;1817301;78;20180;-83
2022/06/21 03:25:44;;;;;;;;;;;;;;;13.65;87.00;97642.91;1738791;81;21169;-83
2022/06/21 03:28:25;;;;;;;;;;;;;;;13.64;87.05;97646.75;1778838;79;20124;-83
2022/06/21 03:31:09;;;;;;;;;;;;;;;13.66;87.21;97649.41;1804352;79;20553;-82
2022/06/21 03:33:36;;;;;;;;;;;;;;;13.68;86.71;97651.84;1804965;79;20185;-82
2022/06/21 03:36:07;;;;;;;;;;;;;;;13.64;86.32;97652.20;1804207;79;20182;-86
2022/06/21 03:38:33;;;;;;;;;;;;;;;13.65;86.75;97649.72;1797598;79;21133;-86
2022/06/21 03:43:58;;;;;;;;;;;;;;;13.73;86.29;97650.34;1770074;80;20156;-86
2022/06/21 03:46:27;;;;;;;;;;;;;;;13.73;85.99;97644.90;1792155;80;20176;-83
2022/06/21 03:48:59;;;;;;;;;;;;;;;13.77;86.24;97648.07;1804778;79;20178;-86
2022/06/21 03:51:34;;;;;;;;;;;;;;;13.78;85.51;97644.23;1804359;79;21143;-87
2022/06/21 03:54:12;;;;;;;;;;;;;;;13.85;85.35;97640.28;1775478;79;20199;-83
2022/06/21 03:56:44;;;;;;;;;;;;;;;13.81;83.68;97646.33;1784409;79;20185;-86
2022/06/21 03:59:23;;;;;;;;;;;;;;;13.82;83.28;97645.77;1793697;79;20146;-86
2022/06/21 04:01:55;;;;;;;;;;;;;;;13.90;84.15;97646.38;1799682;79;20217;-83
2022/06/21 04:04:27;;;;;;;;;;;;;;;13.95;82.59;97648.99;1801503;79;20988;-86
2022/06/21 04:07:01;;;;;;;;;;;;;;;13.98;81.03;97650.28;1795346;79;20165;-86
2022/06/21 04:09:33;;;;;;;;;;;;;;;14.16;80.46;97652.56;1812505;79;20756;-86
2022/06/21 04:12:17;;;;;;;;;;;;;;;14.27;79.27;97658.81;1811972;79;20123;-82
2022/06/21 04:14:46;;;;;;;;;;;;;;;14.54;80.34;97660.58;1822865;78;20152;-86
2022/06/21 04:17:18;;;;;;;;;;;;;;;14.63;78.96;97655.97;1814353;78;22006;-83
2022/06/21 04:19:53;;;;;;;;;;;;;;;14.84;79.44;97653.47;1796521;79;20163;-83
2022/06/21 04:22:41;;;;;;;;;;;;;;;14.86;77.86;97656.67;1794529;79;20193;-86
2022/06/21 04:25:11;;;;;;;;;;;;;;;14.88;77.09;97661.84;1769964;81;20160;-83
2022/06/21 04:27:48;;;;;;;;;;;;;;;14.76;77.31;97665.15;1797271;79;20448;-83
2022/06/21 04:30:23;;;;;;;;;;;;;;;14.81;78.53;97661.48;1817460;79;22051;-83
2022/06/21 04:32:56;;;;;;;;;;;;;;;14.84;78.75;97673.12;1815100;79;20200;-86
2022/06/21 04:35:37;;;;;;;;;;;;;;;14.67;77.99;97665.11;1770824;79;20197;-86
2022/06/21 04:38:12;;;;;;;;;;;;;;;14.75;78.78;97660.81;1810504;79;20206;-83
2022/06/21 04:40:48;;;;;;;;;;;;;;;14.80;79.20;97663.41;1799335;79;20465;-86
2022/06/21 04:43:40;;;;;;;;;;;;;;;14.85;78.63;97660.52;1797246;79;21127;-83
2022/06/21 04:46:22;;;;;;;;;;;;;;;14.65;78.44;97659.73;1781564;79;20163;-86
2022/06/21 04:48:57;;;;;;;;;;;;;;;14.50;77.47;97658.78;1799612;79;20210;-83
2022/06/21 04:51:42;;;;;;;;;;;;;;;14.50;78.33;97661.51;1795740;79;20708;-86
2022/06/21 04:54:14;;;;;;;;;;;;;;;14.54;78.69;97662.51;1794560;79;20194;-86
2022/06/21 04:57:03;;;;;;;;;;;;;;;14.59;79.15;97664.52;1789098;79;21110;-86
2022/06/21 04:59:38;;;;;;;;;;;;;;;14.60;78.44;97663.39;1790164;79;20154;-83
2022/06/21 05:02:04;;;;;;;;;;;;;;;14.39;75.90;97658.23;1803984;79;20136;-83
2022/06/21 05:04:33;;;;;;;;;;;;;;;14.47;77.88;97659.42;1778505;79;20227;-82
2022/06/21 05:07:01;;;;;;;;;;;;;;;14.56;77.91;97661.63;1807987;79;20465;-84
2022/06/21 05:09:28;;;;;;;;;;;;;;;14.63;77.43;97666.88;1809798;78;21095;-86
2022/06/21 05:12:15;;;;;;;;;;;;;;;14.73;76.94;97661.70;1805967;79;20181;-86
2022/06/21 05:14:46;;;;;;;;;;;;;;;14.77;77.11;97668.67;1794621;79;20154;-83
2022/06/21 05:17:14;;;;;;;;;;;;;;;14.87;76.69;97662.96;1800475;79;20162;-83
2022/06/21 05:19:42;;;;;;;;;;;;;;;14.91;76.58;97674.84;1800326;79;20147;-86
2022/06/21 05:22:35;;;;;;;;;;;;;;;14.88;77.03;97679.01;1794032;79;20998;-83
2022/06/21 05:25:02;;;;;;;;;;;;;;;14.90;75.88;97676.77;1778272;80;20386;-83
2022/06/21 05:27:35;;;;;;;;;;;;;;;15.07;75.97;97668.39;1764011;80;20191;-86
2022/06/21 05:30:04;;;;;;;;;;;;;;;15.06;75.22;97670.31;1812183;79;20162;-86
2022/06/21 05:32:34;;;;;;;;;;;;;;;15.17;75.77;97663.43;1796085;78;20177;-83
2022/06/21 05:35:03;;;;;;;;;;;;;;;15.25;75.09;97667.30;1815833;78;21173;-83
2022/06/21 05:37:34;;;;;;;;;;;;;;;15.31;74.58;97664.67;1781184;79;20177;-83
2022/06/21 05:40:03;;;;;;;;;;;;;;;15.37;74.56;97662.57;1795504;79;20201;-87
2022/06/21 05:42:29;;;;;;;;;;;;;;;15.73;74.35;97661.77;1784384;78;20568;-83
2022/06/21 05:45:05;;;;;;;;;;;;;;;15.92;73.05;97666.09;1793947;79;20191;-86
2022/06/21 05:47:42;;;;;;;;;;;;;;;15.98;71.64;97669.70;1779757;80;21216;-83
2022/06/21 05:50:11;;;;;;;;;;;;;;;16.18;72.58;97670.95;1796943;79;20174;-87
2022/06/21 05:52:39;;;;;;;;;;;;;;;16.42;71.79;97675.09;1788045;79;20163;-83
2022/06/21 05:55:09;;;;;;;;;;;;;;;16.70;71.28;97669.47;1803218;79;20186;-84
2022/06/21 05:57:52;;;;;;;;;;;;;;;16.69;70.12;97676.64;1807529;79;20149;-86
2022/06/21 06:00:38;;;;;;;;;;;;;;;16.54;66.09;97676.58;1803758;79;21141;-86
2022/06/21 06:03:07;;;;;;;;;;;;;;;16.40;68.00;97674.03;1803598;79;20139;-83
2022/06/21 06:05:35;;;;;;;;;;;;;;;16.40;68.82;97674.03;1810602;78;20148;-83
2022/06/21 06:08:10;;;;;;;;;;;;;;;16.42;68.82;97675.89;1796414;78;20145;-86
2022/06/21 06:10:36;;;;;;;;;;;;;;;16.50;66.99;97666.87;1801500;78;20136;-85
2022/06/21 06:13:18;;;;;;;;;;;;;;;16.56;67.14;97671.58;1818234;78;20973;-84
2022/06/21 06:15:55;;;;;;;;;;;;;;;16.41;67.20;97672.92;1811047;78;20173;-83
2022/06/21 06:18:40;;;;;;;;;;;;;;;16.25;68.04;97679.47;1810243;79;21111;-86
2022/06/21 06:21:18;;;;;;;;;;;;;;;16.07;67.62;97680.62;1776317;80;20160;-86
2022/06/21 06:23:48;;;;;;;;;;;;;;;15.93;68.02;97673.95;1793220;79;20481;-86
2022/06/21 06:26:16;;;;;;;;;;;;;;;15.72;68.04;97668.89;1782557;79;20989;-83
2022/06/21 06:29:21;;;;;;;;;;;;;;;15.65;69.17;97677.59;1811816;77;20177;-83
2022/06/21 06:32:20;;;;;;;;;;;;;;;15.43;68.90;97678.48;1798365;77;20280;-83
2022/06/21 06:34:48;;;;;;;;;;;;;;;15.39;70.08;97681.63;1800177;77;20213;-83
2022/06/21 06:37:25;;;;;;;;;;;;;;;15.48;70.52;97687.91;1802250;77;20150;-83
2022/06/21 06:39:50;;;;;;;;;;;;;;;15.51;70.85;97683.72;1793284;77;22053;-83
2022/06/21 06:42:18;;;;;;;;;;;;;;;15.59;70.51;97686.22;1804437;77;20772;-83
2022/06/21 06:44:50;;;;;;;;;;;;;;;15.65;69.82;97686.34;1797960;77;20173;-83
2022/06/21 06:47:19;;;;;;;;;;;;;;;15.78;69.73;97689.47;1798362;77;20190;-83
2022/06/21 06:49:51;;;;;;;;;;;;;;;15.90;68.95;97689.64;1800267;77;20250;-83
2022/06/21 06:52:22;;;;;;;;;;;;;;;16.26;69.45;97687.11;1793806;77;20557;-83
2022/06/21 06:55:00;;;;;;;;;;;;;;;16.51;67.25;97675.87;1775494;79;20198;-83
2022/06/21 06:57:38;;;;;;;;;;;;;;;16.62;67.74;97679.84;1801076;79;20185;-86
2022/06/21 07:00:16;;;;;;;;;;;;;;;16.52;65.60;97679.64;1814729;78;20860;-86
2022/06/21 07:02:46;;;;;;;;;;;;;;;16.73;66.31;97684.42;1809373;78;20469;-87
2022/06/21 07:05:16;;;;;;;;;;;;;;;16.56;66.34;97681.95;1784056;78;21016;-86
2022/06/21 07:07:53;;;;;;;;;;;;;;;16.51;65.90;97684.87;1803623;78;20330;-86
2022/06/21 07:10:22;;;;;;;;;;;;;;;16.43;66.69;97676.13;1802707;78;20368;-86
2022/06/21 07:12:48;;;;;;;;;;;;;;;16.64;66.46;97672.11;1803553;78;20732;-86
2022/06/21 07:15:14;;;;;;;;;;;;;;;16.95;64.33;97667.76;1798855;77;20208;-87
2022/06/21 07:17:51;;;;;;;;;;;;;;;16.91;62.44;97668.16;1800092;77;21057;-85
2022/06/21 07:20:24;;;;;;;;;;;;;;;17.17;64.34;97668.83;1817617;77;21170;-86
2022/06/21 07:22:52;;;;;;;;;;;;;;;17.33;64.63;97669.63;1810151;77;20413;-87
2022/06/21 07:25:41;;;;;;;;;;;;;;;17.49;62.63;97675.56;1805142;78;20515;-86
2022/06/21 07:28:10;;;;;;;;;;;;;;;17.29;62.63;97676.92;1804007;78;20225;-85
2022/06/21 07:30:39;;;;;;;;;;;;;;;17.08;62.84;97679.02;1800893;77;21193;-87
2022/06/21 07:33:12;;;;;;;;;;;;;;;16.97;62.98;97683.84;1803804;78;20201;-87
2022/06/21 07:35:44;;;;;;;;;;;;;;;16.81;62.45;97693.96;1772768;79;20231;-86
2022/06/21 07:38:14;;;;;;;;;;;;;;;16.63;62.22;97700.03;1806658;78;20469;-87
2022/06/21 07:40:46;;;;;;;;;;;;;;;16.73;63.14;97699.47;1798824;78;20557;-86
2022/06/21 07:43:25;;;;;;;;;;;;;;;17.13;62.21;97695.27;1777967;79;21830;-87
2022/06/21 07:45:52;;;;;;;;;;;;;;;17.76;61.67;97696.75;1775789;79;20172;-87
2022/06/21 07:48:43;;;;;;;;;;;;;;;18.09;60.83;97702.85;1801563;78;20194;-86
2022/06/21 07:51:17;;;;;;;;;;;;;;;18.24;59.33;97696.18;1713015;82;20204;-87
2022/06/21 07:53:51;;;;;;;;;;;;;;;18.79;57.71;97695.53;1722117;81;20158;-87
2022/06/21 07:56:21;;;;;;;;;;;;;;;19.09;58.45;97694.20;1786675;77;21014;-87
2022/06/21 07:59:04;;;;;;;;;;;;;;;18.93;58.09;97697.97;1845882;76;20155;-87
2022/06/21 08:07:11;;;;;;;;;;;;;;;19.49;55.79;97677.02;1789352;78;20176;-87
2022/06/21 08:09:41;;;;;;;;;;;;;;;19.04;55.99;97677.14;1778210;78;21034;-87
2022/06/21 08:12:09;;;;;;;;;;;;;;;18.68;57.26;97680.09;1767004;78;20162;-87
2022/06/21 08:14:35;;;;;;;;;;;;;;;18.17;56.17;97682.21;1788715;79;20366;-86
2022/06/21 08:17:23;;;;;;;;;;;;;;;17.85;57.01;97690.63;1782984;79;20162;-87
2022/06/21 08:20:10;;;;;;;;;;;;;;;17.61;56.27;97687.75;1776325;78;20463;-86
2022/06/21 08:22:58;;;;;;;;;;;;;;;18.16;57.04;97698.44;1784541;78;21114;-86
2022/06/21 08:25:33;;;;;;;;;;;;;;;18.19;54.68;97699.12;1803887;78;20154;-87
2022/06/21 08:28:39;;;;;;;;;;;;;;;18.17;55.62;97695.92;1801183;78;20442;-86
2022/06/21 08:31:10;;;;;;;;;;;;;;;17.81;53.85;97697.13;1807889;78;20586;-84
2022/06/21 08:33:42;;;;;;;;;;;;;;;17.17;52.65;97698.14;1809241;78;20160;-84
2022/06/21 08:36:17;;;;;;;;;;;;;;;16.87;54.16;97691.86;1807253;78;21179;-84
2022/06/21 08:39:16;;;;;;;;;;;;;;;16.75;55.68;97695.83;1798909;79;20173;-84
2022/06/21 08:41:58;;;;;;;;;;;;;;;16.88;54.72;97697.56;1812730;78;20218;-84
2022/06/21 08:45:40;;;;;;;;;;;;;;;17.15;54.71;97699.84;1810824;78;20233;-84
2022/06/21 08:47:45;;;;;;;;;;;;;;;17.61;54.76;97696.77;1802760;78;20177;-84
2022/06/21 08:50:36;;;;;;;;;;;;;;;17.54;53.09;97701.17;1810083;78;21774;-84
2022/06/21 08:53:15;;;;;;;;;;;;;;;17.76;53.41;97698.92;1808760;78;21381;-84
2022/06/21 08:55:57;;;;;;;;;;;;;;;17.96;52.07;97712.41;1770034;77;20488;-84
2022/06/21 08:58:29;;;;;;;;;;;;;;;18.89;51.27;97707.47;1791829;78;20163;-84
2022/06/21 09:01:01;;;;;;;;;;;;;;;19.71;51.18;97694.97;1806142;79;20172;-84
2022/06/21 09:03:33;;;;;;;;;;;;;;;19.52;47.10;97709.86;1812333;78;20995;-84
2022/06/21 09:06:18;;;;;;;;;;;;;;;19.12;46.29;97711.92;1799246;78;20132;-84
2022/06/21 09:08:53;;;;;;;;;;;;;;;18.99;48.32;97718.57;1810067;77;20169;-84
2022/06/21 09:11:46;;;;;;;;;;;;;;;18.65;48.10;97723.31;1808930;78;20634;-84
2022/06/21 09:14:30;;;;;;;;;;;;;;;18.18;48.63;97723.56;1802801;78;20504;-83
2022/06/21 09:17:08;;;;;;;;;;;;;;;18.13;49.66;97720.25;1768958;79;21292;-84
2022/06/21 09:20:11;;;;;;;;;;;;;;;18.25;49.35;97711.49;1791090;79;20161;-84
2022/06/21 09:23:05;;;;;;;;;;;;;;;17.80;49.32;97727.05;1775773;79;20213;-82
2022/06/21 09:25:51;;;;;;;;;;;;;;;18.46;49.10;97712.03;1782944;79;20135;-84
2022/06/21 09:28:30;;;;;;;;;;;;;;;18.11;48.88;97711.53;1796894;78;20166;-84
2022/06/21 09:31:05;;;;;;;;;;;;;;;18.35;50.09;97718.49;1761597;79;21058;-84
2022/06/21 09:33:37;;;;;;;;;;;;;;;18.28;50.69;97713.55;1769385;78;20143;-84
2022/06/21 09:36:07;;;;;;;;;;;;;;;18.12;51.29;97726.88;1807171;78;20205;-84
2022/06/21 09:38:54;;;;;;;;;;;;;;;17.93;51.85;97719.11;1808364;77;20200;-84
2022/06/21 09:41:27;;;;;;;;;;;;;;;17.80;51.99;97716.08;1804261;78;20446;-84
2022/06/21 09:44:05;;;;;;;;;;;;;;;17.72;51.76;97720.48;1815742;78;21116;-84
2022/06/21 09:46:41;;;;;;;;;;;;;;;17.61;52.40;97721.98;1807475;77;20285;-84
2022/06/21 09:49:19;;;;;;;;;;;;;;;17.48;51.94;97729.31;1806057;78;20215;-83
2022/06/21 09:52:07;;;;;;;;;;;;;;;17.33;52.14;97733.98;1803549;78;20668;-83
2022/06/21 09:54:38;;;;;;;;;;;;;;;17.33;51.63;97725.77;1800795;78;20173;-82
2022/06/21 09:57:26;;;;;;;;;;;;;;;17.09;52.07;97728.56;1802736;77;21840;-82
2022/06/21 10:00:04;;;;;;;;;;;;;;;17.11;52.30;97737.80;1805563;79;20469;-83
2022/06/21 10:02:49;;;;;;;;;;;;;;;17.34;52.02;97738.31;1809259;78;20387;-83
2022/06/21 10:05:24;;;;;;;;;;;;;;;17.39;51.21;97740.31;1807805;78;20437;-84
2022/06/21 10:08:06;;;;;;;;;;;;;;;17.47;51.04;97740.03;1809117;77;20160;-83
2022/06/21 10:10:41;;;;;;;;;;;;;;;17.41;52.12;97736.67;1797148;78;21044;-83
2022/06/21 10:13:26;;;;;;;;;;;;;;;17.10;52.77;97732.09;1810056;77;20134;-84
2022/06/21 10:16:07;;;;;;;;;;;;;;;16.99;52.55;97734.94;1807089;77;20384;-84
2022/06/21 10:18:56;;;;;;;;;;;;;;;16.96;53.22;97736.41;1802549;77;20220;-84
2022/06/21 10:21:38;;;;;;;;;;;;;;;16.93;52.04;97737.08;1797950;78;20500;-84
2022/06/21 10:24:14;;;;;;;;;;;;;;;16.86;53.03;97747.72;1807255;77;21830;-86
2022/06/21 10:27:01;;;;;;;;;;;;;;;16.92;53.54;97745.05;1762245;79;20157;-86
2022/06/21 10:29:49;;;;;;;;;;;;;;;17.12;53.86;97750.36;1808025;77;20167;-86
2022/06/21 10:32:33;;;;;;;;;;;;;;;17.31;53.65;97753.48;1807179;78;20169;-87
2022/06/21 10:35:19;;;;;;;;;;;;;;;17.45;53.08;97749.95;1802712;79;20236;-86
2022/06/21 10:38:07;;;;;;;;;;;;;;;17.67;51.34;97746.67;1790856;78;21126;-86
2022/06/21 10:40:42;;;;;;;;;;;;;;;17.88;50.96;97754.38;1780128;80;20566;-86
2022/06/21 10:43:11;;;;;;;;;;;;;;;18.18;50.83;97752.36;1769312;80;20504;-86
2022/06/21 10:45:44;;;;;;;;;;;;;;;18.45;50.13;97757.04;1807388;79;20532;-86
2022/06/21 10:48:31;;;;;;;;;;;;;;;18.65;48.91;97760.36;1792048;77;20133;-86
2022/06/21 10:51:17;;;;;;;;;;;;;;;19.88;47.88;97753.80;1801259;77;21005;-86
2022/06/21 10:54:02;;;;;;;;;;;;;;;19.89;47.38;97751.28;1793874;77;20160;-85
2022/06/21 11:02:54;;;;;;;;;;;;;;;22.62;43.35;97760.47;1801093;79;20146;-86
2022/06/21 11:05:27;;;;;;;;;;;;;;;24.71;38.43;97755.26;1753532;79;21097;-88
2022/06/21 11:08:08;;;;;;;;;;;;;;;26.69;34.72;97741.84;1802075;78;20205;-87
2022/06/21 11:10:54;;;;;;;;;;;;;;;26.66;33.67;97740.66;1762517;78;20199;-87
2022/06/21 11:13:21;;;;;;;;;;;;;;;26.63;32.38;97742.02;1810501;78;20409;-87
2022/06/21 11:16:02;;;;;;;;;;;;;;;24.63;36.02;97739.14;1809128;78;21435;-87
2022/06/21 11:18:37;;;;;;;;;;;;;;;23.38;36.48;97733.83;1807652;79;20878;-87
2022/06/21 11:21:29;;;;;;;;;;;;;;;22.23;38.16;97733.70;1799287;79;20213;-87
2022/06/21 11:24:13;;;;;;;;;;;;;;;20.97;40.42;97735.25;1806209;79;20189;-86
2022/06/21 11:26:45;;;;;;;;;;;;;;;20.06;41.29;97741.95;1788043;79;20570;-86
2022/06/21 11:29:31;;;;;;;;;;;;;;;19.26;43.47;97750.85;1802427;79;20185;-85
2022/06/21 11:32:22;;;;;;;;;;;;;;;18.79;44.62;97755.34;1807883;78;21097;-86
2022/06/21 11:34:57;;;;;;;;;;;;;;;18.41;46.03;97747.33;1814153;79;20234;-84
2022/06/21 11:37:30;;;;;;;;;;;;;;;18.13;46.49;97752.58;1805261;79;20158;-86
2022/06/21 11:40:21;;;;;;;;;;;;;;;18.08;46.62;97749.23;1805849;79;20142;-86
2022/06/21 11:42:55;;;;;;;;;;;;;;;18.17;47.27;97750.76;1806290;78;20252;-85
2022/06/21 11:45:41;;;;;;;;;;;;;;;18.39;46.65;97755.67;1808196;79;21041;-85
2022/06/21 11:48:28;;;;;;;;;;;;;;;18.54;46.37;97749.53;1771499;79;20192;-86
2022/06/21 11:51:13;;;;;;;;;;;;;;;18.78;45.81;97751.00;1799545;79;20387;-86
2022/06/21 11:53:58;;;;;;;;;;;;;;;19.04;45.28;97758.14;1802599;79;20221;-87
2022/06/21 11:56:36;;;;;;;;;;;;;;;19.35;44.28;97731.51;1805740;79;20173;-85
2022/06/21 11:59:24;;;;;;;;;;;;;;;19.93;44.19;97733.53;1761919;80;21987;-85
2022/06/21 12:01:59;;;;;;;;;;;;;;;20.15;43.80;97726.69;1787409;79;20412;-86
2022/06/21 12:04:50;;;;;;;;;;;;;;;20.01;44.04;97732.59;1800880;79;20225;-86
2022/06/21 12:07:22;;;;;;;;;;;;;;;19.88;43.98;97727.69;1804381;78;20205;-86
2022/06/21 12:09:52;;;;;;;;;;;;;;;19.90;44.13;97724.58;1784202;79;20234;-85
2022/06/21 12:12:27;;;;;;;;;;;;;;;19.83;44.35;97725.19;1807234;78;21200;-86
2022/06/21 12:15:32;;;;;;;;;;;;;;;19.85;44.45;97741.33;1789482;79;20207;-86
2022/06/21 12:17:59;;;;;;;;;;;;;;;19.68;44.40;97736.90;1805884;78;20444;-86
2022/06/21 12:20:44;;;;;;;;;;;;;;;19.29;44.67;97741.12;1783520;79;20216;-86
2022/06/21 12:23:14;;;;;;;;;;;;;;;19.26;44.94;97736.31;1767373;79;20145;-86
2022/06/21 12:25:39;;;;;;;;;;;;;;;19.01;45.36;97746.48;1793990;79;21318;-86
2022/06/21 12:28:23;;;;;;;;;;;;;;;18.84;45.66;97737.30;1808396;78;20181;-85
2022/06/21 12:30:49;;;;;;;;;;;;;;;18.80;46.51;97745.17;1789586;79;20221;-87
2022/06/21 12:33:15;;;;;;;;;;;;;;;18.68;46.44;97739.66;1798436;79;20175;-86
2022/06/21 12:35:45;;;;;;;;;;;;;;;18.63;47.28;97739.83;1783078;79;20355;-86
2022/06/21 12:38:14;;;;;;;;;;;;;;;19.33;45.97;97741.47;1782045;78;21047;-86
2022/06/21 12:40:49;;;;;;;;;;;;;;;19.08;46.22;97750.27;1789284;79;20499;-86
2022/06/21 12:43:35;;;;;;;;;;;;;;;19.21;45.28;97753.02;1783338;78;20193;-86
2022/06/21 12:46:06;;;;;;;;;;;;;;;19.18;44.88;97742.15;1805698;79;20190;-86
2022/06/21 12:48:59;;;;;;;;;;;;;;;18.87;44.78;97735.81;1789368;77;20149;-86
2022/06/21 12:51:28;;;;;;;;;;;;;;;18.56;45.41;97736.30;1752426;80;21409;-86
2022/06/21 12:54:31;;;;;;;;;;;;;;;18.57;46.03;97734.58;1804171;79;20595;-86
2022/06/21 12:57:32;;;;;;;;;;;;;;;19.10;45.87;97731.50;1811507;78;20142;-85
2022/06/21 13:00:04;;;;;;;;;;;;;;;19.93;44.19;97722.53;1784824;78;20336;-86
2022/06/21 13:02:45;;;;;;;;;;;;;;;21.82;42.26;97718.59;1801830;77;20167;-86
2022/06/21 13:05:23;;;;;;;;;;;;;;;21.20;41.98;97700.20;1800718;78;21264;-87
2022/06/21 13:08:01;;;;;;;;;;;;;;;21.03;42.35;97706.30;1803303;78;20148;-86
2022/06/21 13:10:43;;;;;;;;;;;;;;;20.71;41.55;97701.92;1761089;80;20436;-86
2022/06/21 13:13:22;;;;;;;;;;;;;;;20.35;42.37;97695.44;1783338;79;20153;-87
2022/06/21 13:16:07;;;;;;;;;;;;;;;19.97;43.56;97709.67;1756595;80;20165;-86
2022/06/21 13:18:51;;;;;;;;;;;;;;;19.72;43.70;97706.19;1778730;79;21126;-86
2022/06/21 13:21:36;;;;;;;;;;;;;;;19.42;44.32;97708.39;1780384;79;20209;-86
2022/06/21 13:24:08;;;;;;;;;;;;;;;19.14;44.73;97705.52;1810069;78;20153;-86
2022/06/21 13:26:55;;;;;;;;;;;;;;;18.85;44.68;97712.82;1790648;79;21177;-85
2022/06/21 13:29:48;;;;;;;;;;;;;;;18.58;45.50;97720.29;1813593;78;20213;-85
2022/06/21 13:32:17;;;;;;;;;;;;;;;18.43;45.71;97721.72;1779915;77;20649;-85
2022/06/21 13:34:47;;;;;;;;;;;;;;;18.30;46.56;97727.75;1805165;77;21169;-86
2022/06/21 13:37:15;;;;;;;;;;;;;;;18.21;47.16;97738.00;1779517;79;20207;-86
2022/06/21 13:39:45;;;;;;;;;;;;;;;18.06;47.63;97739.17;1808932;77;20254;-86
2022/06/21 13:45:34;;;;;;;;;;;;;;;17.83;48.99;97752.40;1785971;79;21025;-86